LEVD/VLL METAR and TAF weather

Enter ICAO airport designator
Station Type Date Time Source
LEVD METAR 2021/02/25 01:00 UTC NOAA

LEVD 250100Z AUTO 17006KT CAVOK 08/04 Q1027


Station Type Date Time Source
LEVD Decoded METAR 2021/02/25 01:00 UTC NOAA

Valladolid / Villanubla, Spain (LEVD) 41-43N 004-51W 846M
Feb 24, 2021 - 08:00 PM EST / 2021.02.25 0100 UTC
Wind: from the S (170 degrees) at 7 MPH (6 KT):0
Visibility: greater than 7 mile(s):0
Temperature: 46 F (8 C)
Dew Point: 39 F (4 C)
Relative Humidity: 75%
Pressure (altimeter): 30.33 in. Hg (1027 hPa)
ob: LEVD 250100Z AUTO 17006KT CAVOK 08/04 Q1027
cycle: 1

Station Type Date Time Source
LEVD TAF 2021/02/24 21:27 UTC NOAA

TAF LEVD 242000Z 2421/2521 18009KT 9999 SCT035 TX14/2515Z TN04/2507Z
BECMG 2516/2517 04008KT

Example: see airport list